Time;durP1;ratioP1;P1;durP2;ratioP2;P2;SDS_P1;SDS_P2;PMS_P1;PMS_P2;Temp;Humidity;BMP_temperature;BMP_pressure;BME280_temperature;BME280_humidity;BME280_pressure;Samples;Min_cycle;Max_cycle;Signal;HPM_P1;HPM_P2
2022/06/16 07:26:24;;;;;;;10.70;9.77;;;34.30;99.90;;;;;;6219195;23;20025;-93
2022/06/16 07:28:52;;;;;;;10.98;10.02;;;35.10;99.90;;;;;;6191487;23;20070;-92
2022/06/16 07:31:19;;;;;;;10.35;9.75;;;35.40;99.90;;;;;;6167092;23;20376;-92
2022/06/16 07:33:46;;;;;;;9.93;9.43;;;35.20;99.90;;;;;;6171779;23;20008;-91
2022/06/16 07:36:13;;;;;;;10.45;9.60;;;34.50;99.90;;;;;;6196637;23;20012;-91
2022/06/16 07:38:39;;;;;;;10.52;9.82;;;34.10;99.90;;;;;;6222235;23;20031;-93
2022/06/16 07:43:51;;;;;;;11.27;9.95;;;33.60;99.90;;;;;;6221864;23;20015;-93
2022/06/16 07:46:18;;;;;;;10.55;9.80;;;33.90;99.90;;;;;;6198339;23;20042;-92
2022/06/16 07:48:44;;;;;;;10.63;9.93;;;34.70;99.90;;;;;;6227758;23;20019;-91
2022/06/16 07:51:11;;;;;;;10.32;9.65;;;34.10;99.90;;;;;;6201795;23;20001;-92
2022/06/16 07:53:37;;;;;;;9.90;9.25;;;33.80;99.90;;;;;;6226653;23;20015;-92
2022/06/16 07:56:04;;;;;;;9.95;9.30;;;33.30;99.90;;;;;;6195966;23;20079;-92
2022/06/16 07:58:32;;;;;;;10.13;9.43;;;33.40;99.90;;;;;;6198192;23;20346;-90
2022/06/16 08:01:00;;;;;;;9.80;9.30;;;33.70;99.90;;;;;;6223023;23;20007;-90
2022/06/16 08:03:28;;;;;;;10.77;9.98;;;33.30;99.90;;;;;;6198043;23;20142;-92
2022/06/16 08:05:56;;;;;;;9.40;8.80;;;32.80;99.90;;;;;;6224947;23;20000;-91
2022/06/16 08:08:25;;;;;;;9.68;8.95;;;32.60;99.90;;;;;;6198164;23;20335;-92
2022/06/16 08:10:53;;;;;;;9.30;8.57;;;32.30;99.90;;;;;;6196302;23;20010;-92
2022/06/16 08:13:22;;;;;;;9.50;8.88;;;32.50;99.90;;;;;;6196362;23;20034;-91
2022/06/16 08:15:51;;;;;;;8.95;8.45;;;33.20;99.90;;;;;;6196273;23;20043;-91
2022/06/16 08:18:22;;;;;;;9.32;8.63;;;33.20;99.90;;;;;;6196130;23;20030;-90
2022/06/16 08:20:50;;;;;;;9.52;8.48;;;33.50;99.90;;;;;;6196155;23;20402;-91
2022/06/16 08:23:17;;;;;;;9.27;8.43;;;33.60;99.90;;;;;;6195716;23;20008;-88
2022/06/16 08:25:46;;;;;;;8.85;8.15;;;33.40;99.90;;;;;;6173951;23;20408;-91
2022/06/16 08:28:16;;;;;;;9.20;8.50;;;33.50;99.90;;;;;;6165969;23;20036;-92
2022/06/16 08:30:47;;;;;;;8.48;7.70;;;33.10;99.90;;;;;;6166224;23;20059;-92
2022/06/16 08:33:16;;;;;;;8.48;7.97;;;32.60;99.90;;;;;;6166089;23;20028;-91
2022/06/16 08:35:46;;;;;;;7.93;7.40;;;32.20;99.90;;;;;;6165979;23;20084;-91
2022/06/16 08:38:14;;;;;;;8.32;7.78;;;32.30;99.90;;;;;;6165826;23;20017;-91
2022/06/16 08:40:47;;;;;;;8.57;7.97;;;32.30;99.90;;;;;;6166044;23;20059;-91
2022/06/16 08:43:28;;;;;;;9.05;8.30;;;32.60;99.90;;;;;;6166114;23;20008;-90
2022/06/16 08:46:01;;;;;;;9.90;8.93;;;32.40;99.90;;;;;;6166147;23;20005;-91
2022/06/16 08:48:50;;;;;;;9.32;8.77;;;32.20;99.90;;;;;;6165912;23;20048;-91
2022/06/16 08:51:20;;;;;;;10.73;9.93;;;31.80;99.90;;;;;;6165694;23;20446;-90
2022/06/16 08:54:25;;;;;;;10.60;9.90;;;31.80;99.90;;;;;;6165640;23;20043;-91
2022/06/16 08:57:12;;;;;;;10.57;9.73;;;32.50;99.90;;;;;;6072734;23;20006;-91
2022/06/16 08:59:52;;;;;;;10.00;9.20;;;31.90;99.90;;;;;;6048483;23;20010;-91
2022/06/16 09:03:03;;;;;;;9.20;8.60;;;32.20;99.90;;;;;;6067941;23;20138;-90
2022/06/16 09:05:51;;;;;;;9.95;9.13;;;32.70;99.90;;;;;;6072502;23;20037;-91
2022/06/16 09:08:44;;;;;;;9.82;9.02;;;32.90;99.90;;;;;;6073514;23;20019;-90
2022/06/16 09:11:33;;;;;;;9.95;8.88;;;31.90;99.90;;;;;;6072602;23;20080;-91
2022/06/16 09:14:06;;;;;;;10.00;8.88;;;32.50;99.90;;;;;;6072398;23;20014;-91
2022/06/16 09:16:55;;;;;;;9.15;8.65;;;32.70;99.90;;;;;;6072033;23;20010;-90
2022/06/16 09:19:46;;;;;;;10.25;9.27;;;32.80;99.90;;;;;;6072513;23;20073;-91
2022/06/16 09:22:48;;;;;;;9.80;9.23;;;32.80;99.90;;;;;;6096146;23;20018;-90
2022/06/16 09:25:31;;;;;;;9.35;8.85;;;32.50;99.90;;;;;;5996356;23;20041;-89
2022/06/16 09:28:06;;;;;;;10.07;9.38;;;32.50;99.90;;;;;;5987150;23;20059;-92
2022/06/16 09:30:38;;;;;;;10.18;9.60;;;32.20;99.90;;;;;;5997744;23;20064;-91
2022/06/16 09:33:11;;;;;;;10.23;9.65;;;32.50;99.10;;;;;;6069303;23;20388;-93
2022/06/16 09:35:45;;;;;;;10.00;9.40;;;32.10;99.90;;;;;;6048855;23;20093;-91
2022/06/16 09:38:21;;;;;;;10.48;9.63;;;32.10;99.90;;;;;;6073146;23;20053;-92
2022/06/16 09:40:58;;;;;;;9.35;8.77;;;32.20;99.90;;;;;;6075730;23;20014;-92
2022/06/16 09:43:46;;;;;;;9.80;9.10;;;32.60;99.90;;;;;;6048947;23;20106;-92
2022/06/16 09:46:27;;;;;;;10.23;9.32;;;32.30;99.90;;;;;;6072877;23;20014;-93
2022/06/16 09:49:21;;;;;;;9.93;9.05;;;31.90;99.90;;;;;;6048626;23;20022;-92
2022/06/16 09:52:27;;;;;;;9.70;9.10;;;31.60;99.90;;;;;;6073478;23;20017;-92
2022/06/16 09:55:11;;;;;;;9.75;9.10;;;31.50;99.90;;;;;;6216025;23;20093;-93
2022/06/16 09:57:49;;;;;;;9.77;9.10;;;31.50;99.90;;;;;;6165724;23;20009;-93
2022/06/16 10:00:20;;;;;;;9.80;9.20;;;31.40;99.90;;;;;;6165406;23;20015;-92
2022/06/16 10:03:02;;;;;;;10.07;9.10;;;31.30;99.90;;;;;;6190538;23;20005;-93
2022/06/16 10:06:15;;;;;;;11.75;8.70;;;31.50;99.90;;;;;;6193650;23;20027;-93
2022/06/16 10:08:51;;;;;;;9.30;8.70;;;31.30;99.90;;;;;;6146022;23;20443;-93
2022/06/16 10:11:52;;;;;;;9.30;8.80;;;31.30;99.90;;;;;;6152199;23;20458;-93
2022/06/16 10:14:27;;;;;;;10.63;9.82;;;31.40;99.90;;;;;;6153657;23;20474;-93
2022/06/16 10:17:08;;;;;;;9.77;9.23;;;31.30;99.90;;;;;;6159676;23;20045;-93
2022/06/16 10:19:43;;;;;;;10.07;9.32;;;31.10;99.90;;;;;;6144168;23;20013;-92
2022/06/16 10:22:16;;;;;;;10.98;9.95;;;31.10;99.90;;;;;;6145496;23;20067;-92
2022/06/16 10:25:10;;;;;;;12.35;11.25;;;31.20;99.90;;;;;;6146952;23;20021;-93
2022/06/16 10:28:02;;;;;;;12.52;11.50;;;31.40;99.90;;;;;;6122699;23;20020;-91
2022/06/16 10:30:40;;;;;;;12.90;11.77;;;31.40;99.90;;;;;;6150562;23;20010;-92
2022/06/16 10:33:22;;;;;;;12.82;11.55;;;31.00;99.90;;;;;;6147917;23;20005;-92
2022/06/16 10:35:49;;;;;;;11.85;11.15;;;30.90;99.90;;;;;;6159548;23;20040;-92
2022/06/16 10:38:41;;;;;;;11.85;11.10;;;31.30;99.90;;;;;;6127100;23;20083;-91
2022/06/16 10:41:33;;;;;;;12.63;11.50;;;31.10;99.90;;;;;;6050646;23;20119;-93
2022/06/16 10:44:04;;;;;;;11.98;10.88;;;31.50;99.90;;;;;;6022536;23;20023;-92
2022/06/16 10:46:36;;;;;;;11.07;10.30;;;31.80;99.90;;;;;;6030403;23;20011;-92
2022/06/16 10:49:07;;;;;;;10.35;9.65;;;31.90;99.90;;;;;;6010512;23;20049;-92
2022/06/16 10:51:46;;;;;;;10.15;9.55;;;31.60;99.90;;;;;;6040256;23;20015;-92
2022/06/16 10:54:19;;;;;;;9.80;9.10;;;31.60;99.90;;;;;;6030145;23;20018;-92
2022/06/16 10:56:47;;;;;;;9.93;9.23;;;31.50;99.90;;;;;;6044933;23;20011;-92
2022/06/16 10:59:26;;;;;;;10.50;9.80;;;31.80;99.90;;;;;;6044980;23;20011;-92
2022/06/16 11:02:02;;;;;;;9.77;9.23;;;31.50;99.90;;;;;;6047565;23;20094;-93
2022/06/16 11:04:39;;;;;;;10.95;10.02;;;31.20;99.90;;;;;;6045495;23;20506;-93
2022/06/16 11:07:11;;;;;;;11.05;10.32;;;31.40;99.90;;;;;;6045303;23;20110;-92
2022/06/16 11:09:38;;;;;;;11.05;10.05;;;31.40;99.90;;;;;;6045362;23;20026;-92
2022/06/16 11:12:21;;;;;;;10.32;9.63;;;31.00;99.90;;;;;;6044618;23;20007;-91
2022/06/16 11:15:05;;;;;;;10.50;9.77;;;31.30;99.90;;;;;;6044452;23;20074;-91
2022/06/16 11:17:38;;;;;;;10.57;9.57;;;31.40;99.90;;;;;;6077986;23;20011;-89
2022/06/16 11:20:22;;;;;;;10.63;9.82;;;31.50;99.90;;;;;;6167454;23;20338;-90
2022/06/16 11:22:50;;;;;;;9.70;9.10;;;31.40;99.90;;;;;;6166872;23;20351;-91
2022/06/16 11:25:20;;;;;;;9.45;8.75;;;31.60;99.90;;;;;;6166310;23;20027;-91
2022/06/16 11:27:50;;;;;;;11.57;9.88;;;31.60;99.90;;;;;;6166701;23;20005;-91
2022/06/16 11:30:38;;;;;;;9.60;9.00;;;31.60;99.90;;;;;;6166462;23;20015;-90
2022/06/16 11:34:06;;;;;;;9.60;9.00;;;31.80;99.90;;;;;;6166427;23;20427;-91
2022/06/16 11:36:16;;;;;;;9.02;8.43;;;31.80;99.90;;;;;;6190634;23;20015;-91
2022/06/16 11:39:20;;;;;;;10.00;9.30;;;32.00;99.90;;;;;;6166037;23;20335;-91
2022/06/16 11:41:51;;;;;;;9.65;8.95;;;32.50;99.90;;;;;;6187905;23;20343;-90
2022/06/16 11:44:27;;;;;;;9.65;8.73;;;32.10;99.90;;;;;;6166841;23;20059;-90
2022/06/16 11:46:53;;;;;;;10.18;9.45;;;31.90;99.90;;;;;;6166459;23;20139;-91
2022/06/16 11:49:37;;;;;;;9.80;9.20;;;31.80;99.90;;;;;;6165886;23;20016;-90
2022/06/16 11:52:44;;;;;;;10.50;9.30;;;31.60;99.90;;;;;;6168675;23;20005;-91
2022/06/16 11:55:29;;;;;;;10.00;9.23;;;31.50;99.90;;;;;;6171158;23;20143;-90
2022/06/16 11:58:32;;;;;;;9.55;9.05;;;31.70;99.90;;;;;;6166222;23;20004;-90
2022/06/16 12:01:21;;;;;;;9.73;9.00;;;31.70;99.90;;;;;;6166529;23;20047;-91
2022/06/16 12:04:34;;;;;;;10.10;9.40;;;31.30;99.90;;;;;;6166134;23;20004;-91
2022/06/16 12:07:25;;;;;;;9.20;8.52;;;31.40;99.90;;;;;;6166100;23;20015;-90
2022/06/16 12:10:06;;;;;;;9.50;8.90;;;31.30;99.90;;;;;;6166243;23;20023;-90
2022/06/16 12:12:56;;;;;;;9.98;9.30;;;31.50;99.90;;;;;;6166508;23;20043;-90
2022/06/16 12:15:30;;;;;;;9.93;9.20;;;31.60;99.90;;;;;;6191668;23;20062;-89
2022/06/16 12:18:12;;;;;;;9.68;9.15;;;31.40;99.90;;;;;;6165941;23;20423;-91
2022/06/16 12:20:41;;;;;;;10.10;9.40;;;31.30;99.90;;;;;;6166236;23;20009;-90
2022/06/16 12:23:21;;;;;;;10.15;9.40;;;31.60;99.90;;;;;;6165757;23;20004;-90
2022/06/16 12:25:51;;;;;;;10.00;9.40;;;31.90;99.90;;;;;;6166050;23;20351;-90
2022/06/16 12:28:42;;;;;;;10.20;9.40;;;31.80;99.90;;;;;;6165514;23;20049;-90
2022/06/16 12:31:18;;;;;;;9.98;9.38;;;31.70;99.90;;;;;;6141672;23;20027;-91
2022/06/16 12:33:58;;;;;;;10.13;9.35;;;31.30;99.90;;;;;;6167878;23;20012;-89
2022/06/16 12:36:34;;;;;;;9.38;8.90;;;31.40;99.90;;;;;;6171993;23;20342;-89
2022/06/16 12:39:24;;;;;;;9.75;9.15;;;31.60;99.90;;;;;;6169359;23;20005;-90
2022/06/16 12:42:06;;;;;;;9.20;8.80;;;31.60;99.90;;;;;;6167636;23;20031;-90
2022/06/16 12:44:42;;;;;;;9.70;9.20;;;31.60;99.90;;;;;;6192351;23;20431;-89
2022/06/16 12:47:14;;;;;;;9.50;9.00;;;31.70;99.90;;;;;;6192009;23;20426;-89
2022/06/16 12:49:47;;;;;;;9.85;9.25;;;31.60;99.90;;;;;;6168358;23;20442;-88
2022/06/16 12:52:30;;;;;;;9.65;9.15;;;31.40;99.90;;;;;;6132192;23;20005;-90
2022/06/16 12:55:06;;;;;;;9.65;9.05;;;31.50;99.90;;;;;;6132978;23;20017;-89
2022/06/16 12:57:57;;;;;;;10.10;9.45;;;31.90;99.90;;;;;;6137651;23;20013;-89
2022/06/16 13:00:29;;;;;;;9.82;9.10;;;32.10;99.90;;;;;;6149244;23;20005;-89
2022/06/16 13:03:11;;;;;;;9.80;9.20;;;31.60;99.90;;;;;;6137029;23;20014;-90
2022/06/16 13:05:38;;;;;;;10.20;9.40;;;31.60;99.90;;;;;;6133625;23;20372;-91
2022/06/16 13:08:06;;;;;;;10.15;9.40;;;31.50;99.90;;;;;;6133032;23;20012;-91
2022/06/16 13:10:43;;;;;;;8.75;8.32;;;31.20;99.90;;;;;;6131935;23;20013;-91
2022/06/16 13:13:10;;;;;;;9.60;9.00;;;31.30;99.90;;;;;;6131463;23;20009;-90
2022/06/16 13:15:41;;;;;;;9.27;8.73;;;31.60;99.40;;;;;;6133093;23;20005;-88
2022/06/16 13:18:26;;;;;;;9.75;9.25;;;31.60;99.20;;;;;;6127395;23;20068;-79
2022/06/16 13:20:58;;;;;;;10.00;9.30;;;31.50;99.50;;;;;;6152880;23;20010;-84
2022/06/16 13:23:38;;;;;;;9.52;9.02;;;31.50;98.90;;;;;;6129219;23;20097;-84
2022/06/16 13:26:27;;;;;;;9.45;8.88;;;31.40;99.20;;;;;;6128839;23;20025;-84
2022/06/16 13:29:06;;;;;;;9.77;9.23;;;31.40;99.30;;;;;;6164751;23;20015;-84
2022/06/16 13:32:02;;;;;;;10.50;9.90;;;31.40;99.00;;;;;;6164421;23;20147;-79
2022/06/16 13:34:52;;;;;;;9.70;9.20;;;31.30;98.50;;;;;;6189164;23;20012;-77
2022/06/16 13:37:47;;;;;;;9.90;9.30;;;31.20;98.60;;;;;;6189428;23;20033;-77
2022/06/16 13:40:22;;;;;;;10.32;9.40;;;31.30;99.00;;;;;;6212828;23;20047;-77
2022/06/16 13:42:51;;;;;;;9.80;9.30;;;31.40;98.50;;;;;;6217878;23;20013;-77
2022/06/16 13:45:48;;;;;;;9.70;9.20;;;31.70;99.00;;;;;;6166379;23;20020;-77
2022/06/16 13:48:49;;;;;;;10.07;9.52;;;31.60;99.10;;;;;;6096461;23;20015;-77
2022/06/16 13:51:36;;;;;;;10.88;10.18;;;31.70;98.40;;;;;;6094172;23;20049;-77
2022/06/16 13:54:05;;;;;;;9.52;9.10;;;31.70;98.00;;;;;;6096504;23;20018;-77
2022/06/16 13:56:36;;;;;;;9.77;9.10;;;31.80;98.10;;;;;;6098714;23;20015;-78
2022/06/16 13:59:24;;;;;;;10.05;9.30;;;31.90;99.10;;;;;;6075082;23;20013;-77
2022/06/16 14:02:06;;;;;;;9.43;8.98;;;31.50;99.20;;;;;;6098920;23;20011;-77
2022/06/16 14:04:35;;;;;;;9.48;8.95;;;31.50;99.90;;;;;;6096536;23;20429;-77
2022/06/16 14:07:09;;;;;;;10.00;9.40;;;31.40;99.90;;;;;;6096512;23;20103;-77
2022/06/16 14:09:48;;;;;;;9.55;9.05;;;31.60;99.00;;;;;;6096508;23;20018;-77
2022/06/16 14:12:19;;;;;;;9.52;9.00;;;31.30;98.90;;;;;;6096524;23;20014;-77
2022/06/16 14:14:48;;;;;;;10.02;9.20;;;31.30;98.80;;;;;;6096124;23;20014;-76
2022/06/16 14:17:29;;;;;;;10.07;9.15;;;31.30;99.60;;;;;;6096184;23;20421;-77
2022/06/16 14:19:58;;;;;;;9.07;8.48;;;31.50;98.60;;;;;;6096424;23;20319;-76
2022/06/16 14:22:29;;;;;;;8.95;8.55;;;31.40;99.20;;;;;;6096383;23;20496;-77
2022/06/16 14:25:11;;;;;;;9.63;9.02;;;31.50;99.20;;;;;;6140013;23;20381;-77
2022/06/16 14:27:55;;;;;;;9.20;8.70;;;31.70;99.00;;;;;;6220847;23;20008;-77
2022/06/16 14:30:37;;;;;;;9.90;9.20;;;31.50;99.60;;;;;;6247674;23;20018;-77
2022/06/16 14:33:15;;;;;;;9.02;8.52;;;31.40;99.30;;;;;;6247690;23;20023;-77
2022/06/16 14:36:02;;;;;;;9.68;9.00;;;31.70;99.10;;;;;;6247642;23;20008;-77
2022/06/16 14:38:36;;;;;;;9.50;8.38;;;31.50;99.10;;;;;;6247917;23;20012;-77
2022/06/16 14:41:28;;;;;;;;;;;31.30;98.50;;;;;;6196252;23;20422;-77
2022/06/16 14:44:00;;;;;;;9.23;8.55;;;31.10;97.90;;;;;;6214075;23;19903;-77
2022/06/16 14:46:53;;;;;;;9.10;8.60;;;30.70;98.80;;;;;;6247638;23;20438;-77
2022/06/16 14:49:40;;;;;;;9.30;8.80;;;30.70;99.00;;;;;;6247344;23;20012;-78
2022/06/16 14:52:10;;;;;;;9.48;8.88;;;30.90;98.80;;;;;;6205314;23;20008;-77
2022/06/16 14:54:55;;;;;;;8.95;8.45;;;31.00;98.20;;;;;;6247196;23;20011;-77
2022/06/16 14:57:27;;;;;;;8.90;8.40;;;30.90;98.30;;;;;;6220750;23;20087;-77
2022/06/16 14:59:58;;;;;;;9.02;8.43;;;30.70;97.70;;;;;;6247302;23;20426;-78
2022/06/16 15:02:28;;;;;;;8.93;8.50;;;30.70;97.90;;;;;;6247405;23;20023;-77
2022/06/16 15:05:06;;;;;;;8.85;8.35;;;30.70;98.00;;;;;;6247488;23;20079;-77
2022/06/16 15:07:34;;;;;;;9.05;8.45;;;30.80;98.20;;;;;;6247591;23;20054;-77
2022/06/16 15:10:03;;;;;;;9.82;9.02;;;30.90;97.70;;;;;;6247232;23;20008;-77
2022/06/16 15:12:30;;;;;;;9.30;8.60;;;30.90;97.60;;;;;;6247347;23;20319;-77
2022/06/16 15:14:56;;;;;;;8.77;8.27;;;30.80;97.60;;;;;;6247232;23;20049;-77
2022/06/16 15:20:13;;;;;;;8.98;8.40;;;30.80;97.30;;;;;;6219253;23;20036;-77
2022/06/16 15:22:46;;;;;;;9.10;8.50;;;30.80;97.40;;;;;;6245984;23;20000;-77
2022/06/16 15:25:16;;;;;;;8.80;8.20;;;30.80;96.90;;;;;;6245731;23;20055;-77
2022/06/16 15:27:47;;;;;;;8.77;8.27;;;30.80;97.20;;;;;;6245775;23;20073;-77
2022/06/16 15:30:30;;;;;;;8.88;8.35;;;30.70;96.80;;;;;;6219147;23;20050;-77
2022/06/16 15:38:28;;;;;;;8.63;8.23;;;30.80;97.20;;;;;;6245746;23;20314;-77
2022/06/16 15:40:55;;;;;;;8.88;8.45;;;30.70;96.40;;;;;;6245605;23;20051;-77
2022/06/16 15:43:26;;;;;;;9.05;8.48;;;30.80;96.90;;;;;;6245735;23;20330;-77
2022/06/16 15:46:04;;;;;;;9.52;8.93;;;30.80;97.10;;;;;;6245719;23;20004;-78
2022/06/16 15:48:35;;;;;;;9.43;8.82;;;30.60;98.10;;;;;;6246261;23;20380;-79
2022/06/16 15:51:09;;;;;;;9.32;8.80;;;30.40;98.40;;;;;;6218673;23;20008;-79
2022/06/16 15:53:38;;;;;;;9.02;8.52;;;30.30;97.90;;;;;;6245732;23;20028;-78
2022/06/16 15:56:08;;;;;;;9.05;8.52;;;30.30;97.60;;;;;;6245712;23;20050;-79
2022/06/16 15:58:34;;;;;;;9.50;9.00;;;30.50;97.50;;;;;;6218526;23;20012;-78
2022/06/16 16:01:02;;;;;;;9.25;8.68;;;30.20;97.30;;;;;;6218596;23;20008;-78
2022/06/16 16:03:30;;;;;;;9.45;8.75;;;30.10;97.60;;;;;;6244804;23;20333;-78
2022/06/16 16:05:57;;;;;;;9.30;8.70;;;30.00;97.50;;;;;;6245417;23;20035;-78
2022/06/16 16:08:27;;;;;;;8.57;8.18;;;30.30;97.40;;;;;;6245810;23;20038;-79
2022/06/16 16:10:57;;;;;;;8.25;7.72;;;30.10;97.10;;;;;;6245479;23;20012;-78
2022/06/16 16:13:24;;;;;;;8.88;8.27;;;29.80;97.70;;;;;;6245562;23;20004;-78
2022/06/16 16:16:01;;;;;;;9.20;8.55;;;29.70;98.00;;;;;;6245259;23;20008;-78
2022/06/16 16:18:38;;;;;;;9.20;8.57;;;29.60;98.10;;;;;;6218677;23;20023;-79
2022/06/16 16:21:15;;;;;;;9.45;8.77;;;29.70;97.80;;;;;;6245510;23;20000;-79
2022/06/16 16:23:49;;;;;;;9.40;8.73;;;29.90;98.00;;;;;;6245275;23;20079;-79
2022/06/16 16:26:20;;;;;;;;;;;29.80;98.20;;;;;;6245725;23;20012;-79
2022/06/16 16:29:07;;;;;;;8.80;8.40;;;29.70;98.40;;;;;;6247334;23;20318;-92
2022/06/16 16:31:58;;;;;;;9.82;9.02;;;29.80;98.20;;;;;;6197847;23;20066;-93
2022/06/16 16:34:44;;;;;;;9.18;8.60;;;29.80;98.20;;;;;;6221258;23;20012;-93
2022/06/16 16:37:25;;;;;;;8.95;8.45;;;29.80;98.40;;;;;;6221537;23;20322;-92
2022/06/16 16:40:06;;;;;;;8.85;8.35;;;29.80;98.60;;;;;;6221194;23;20012;-94
2022/06/16 16:45:27;;;;;;;8.55;8.15;;;29.70;98.70;;;;;;6220941;23;20398;-94
2022/06/16 16:48:16;;;;;;;9.40;8.70;;;29.70;99.30;;;;;;6195455;23;20464;-93
2022/06/16 16:51:09;;;;;;;8.77;8.30;;;29.50;98.40;;;;;;6195961;23;20426;-93
2022/06/16 16:53:40;;;;;;;9.45;8.65;;;29.40;99.00;;;;;;6183885;23;20066;-93
2022/06/16 16:56:15;;;;;;;8.70;8.20;;;29.30;99.10;;;;;;6195557;23;20008;-93
2022/06/16 16:59:04;;;;;;;8.70;7.95;;;29.40;98.80;;;;;;6195726;23;20012;-93
2022/06/16 17:01:36;;;;;;;7.95;6.80;;;29.50;99.90;;;;;;6220233;23;20035;-93
2022/06/16 17:04:15;;;;;;;6.60;6.10;;;29.40;99.90;;;;;;6196215;23;20097;-93
2022/06/16 17:06:43;;;;;;;7.55;5.68;;;29.40;99.90;;;;;;6195739;23;20377;-94
2022/06/16 17:09:11;;;;;;;5.60;5.00;;;29.40;99.90;;;;;;6195582;23;20016;-93
2022/06/16 17:11:52;;;;;;;10.45;5.13;;;29.30;99.90;;;;;;6195821;23;20004;-94
2022/06/16 17:14:27;;;;;;;5.18;4.68;;;29.00;99.90;;;;;;6195639;23;20035;-93
2022/06/16 17:16:55;;;;;;;5.88;4.40;;;28.90;99.90;;;;;;6195669;23;20011;-93
2022/06/16 17:19:27;;;;;;;5.93;4.30;;;28.70;99.90;;;;;;6195691;23;20004;-92
2022/06/16 17:21:55;;;;;;;4.43;4.00;;;28.50;99.90;;;;;;6195775;23;20100;-93
2022/06/16 17:24:24;;;;;;;4.70;3.55;;;28.40;99.90;;;;;;6195282;23;20019;-94
2022/06/16 17:26:52;;;;;;;4.57;3.53;;;28.30;99.90;;;;;;6198065;23;20008;-94
2022/06/16 17:29:19;;;;;;;4.20;3.80;;;28.30;99.90;;;;;;6198409;23;20020;-93
2022/06/16 17:31:46;;;;;;;5.18;3.95;;;28.20;99.90;;;;;;6197238;23;20004;-93
2022/06/16 17:34:36;;;;;;;4.10;3.75;;;28.20;99.90;;;;;;6195476;23;20142;-94
2022/06/16 17:37:04;;;;;;;4.05;3.55;;;28.20;99.90;;;;;;6246343;23;20422;-93
2022/06/16 17:39:35;;;;;;;7.07;4.55;;;28.20;99.90;;;;;;6196332;23;20437;-92
2022/06/16 17:42:05;;;;;;;7.22;4.57;;;28.20;99.90;;;;;;6195391;23;20008;-93
2022/06/16 17:44:31;;;;;;;8.52;5.57;;;28.20;99.90;;;;;;6195102;23;20014;-94
2022/06/16 17:46:58;;;;;;;8.80;4.43;;;28.10;99.90;;;;;;6220359;23;20083;-95
2022/06/16 17:49:25;;;;;;;6.13;3.50;;;28.00;99.90;;;;;;6194546;23;20012;-93
2022/06/16 18:00:05;;;;;;;3.20;2.90;;;27.50;99.90;;;;;;6219569;23;20009;-93
2022/06/16 18:02:37;;;;;;;;;;;27.40;99.90;;;;;;6221401;23;20012;-92
2022/06/16 18:05:04;;;;;;;13.60;5.80;;;27.40;99.90;;;;;;6194919;23;19949;-92
2022/06/16 18:07:34;;;;;;;12.57;5.53;;;27.30;99.90;;;;;;6195270;23;20005;-93
2022/06/16 18:10:05;;;;;;;9.93;5.78;;;27.30;99.90;;;;;;6195106;23;20350;-92
2022/06/16 18:12:36;;;;;;;5.65;3.97;;;27.20;99.90;;;;;;6194664;23;20008;-93
2022/06/16 18:15:16;;;;;;;8.55;3.55;;;27.10;99.90;;;;;;6194963;23;20042;-92
2022/06/16 18:17:44;;;;;;;7.53;3.70;;;27.00;99.90;;;;;;6194864;23;20087;-93
2022/06/16 18:20:18;;;;;;;7.65;3.00;;;26.80;99.90;;;;;;6195188;23;20007;-93
2022/06/16 18:22:49;;;;;;;5.05;3.00;;;26.70;99.90;;;;;;6194669;23;20016;-94
2022/06/16 18:25:21;;;;;;;6.00;3.30;;;26.70;99.90;;;;;;6195421;23;20346;-94
2022/06/16 18:27:49;;;;;;;5.53;2.35;;;26.60;99.90;;;;;;6197416;23;20012;-94
2022/06/16 18:30:19;;;;;;;4.78;2.95;;;26.40;99.90;;;;;;6197170;23;20008;-92
2022/06/16 18:32:46;;;;;;;3.85;2.80;;;26.30;99.90;;;;;;6199095;23;20028;-93
2022/06/16 18:35:21;;;;;;;3.22;2.53;;;26.30;99.90;;;;;;6197193;23;20438;-92
2022/06/16 18:37:54;;;;;;;7.55;3.45;;;26.20;99.90;;;;;;6196854;23;20000;-92
2022/06/16 18:40:22;;;;;;;7.70;2.40;;;26.20;99.90;;;;;;6196808;23;20032;-92
2022/06/16 18:42:49;;;;;;;5.63;2.80;;;26.10;99.90;;;;;;6196981;23;20005;-92
2022/06/16 18:45:18;;;;;;;6.90;3.00;;;26.00;99.90;;;;;;6221863;23;20456;-92
2022/06/16 18:47:45;;;;;;;7.82;2.85;;;26.00;99.90;;;;;;6196684;23;20000;-92
2022/06/16 18:50:14;;;;;;;8.32;2.92;;;25.90;99.90;;;;;;6196976;23;20024;-93
2022/06/16 18:52:40;;;;;;;7.45;2.65;;;25.80;99.90;;;;;;6196776;23;20453;-92
2022/06/16 18:55:08;;;;;;;10.57;3.00;;;25.70;99.90;;;;;;6221768;23;20008;-94
2022/06/16 18:57:36;;;;;;;5.68;3.05;;;25.60;99.90;;;;;;6196559;23;20327;-93
2022/06/16 19:00:16;;;;;;;8.48;3.20;;;25.60;99.90;;;;;;6196449;23;20007;-93
2022/06/16 19:02:49;;;;;;;7.35;2.92;;;25.50;99.90;;;;;;6222368;23;20327;-94
2022/06/16 19:05:23;;;;;;;8.02;3.10;;;25.40;99.90;;;;;;6196748;23;20008;-93
2022/06/16 19:07:49;;;;;;;5.43;2.60;;;25.30;99.90;;;;;;6198608;23;20016;-93
2022/06/16 19:10:20;;;;;;;8.65;2.50;;;25.30;99.90;;;;;;6221845;23;20007;-94
2022/06/16 19:12:50;;;;;;;5.70;3.00;;;25.20;99.90;;;;;;6196765;23;20069;-90
2022/06/16 19:15:18;;;;;;;5.45;3.30;;;25.10;99.90;;;;;;6196507;23;20059;-89
2022/06/16 19:17:52;;;;;;;5.32;2.50;;;25.10;99.90;;;;;;6196391;23;20004;-89
2022/06/16 19:20:29;;;;;;;4.78;2.53;;;25.10;99.90;;;;;;6196541;23;20016;-90
2022/06/16 19:22:59;;;;;;;8.35;2.72;;;25.00;99.90;;;;;;6196694;23;20008;-89
2022/06/16 19:25:26;;;;;;;9.85;3.08;;;25.00;99.90;;;;;;6196742;23;20023;-89
2022/06/16 19:27:53;;;;;;;6.68;2.75;;;25.00;99.90;;;;;;6198582;23;20078;-91
2022/06/16 19:30:27;;;;;;;6.05;2.45;;;24.90;99.90;;;;;;6196590;23;20039;-92
2022/06/16 19:32:55;;;;;;;2.70;2.40;;;24.90;99.90;;;;;;6196518;23;20008;-91
2022/06/16 19:35:23;;;;;;;5.10;2.70;;;24.70;99.90;;;;;;6196608;23;20058;-93
2022/06/16 19:37:52;;;;;;;7.43;2.70;;;24.80;99.90;;;;;;6195938;23;20008;-91
2022/06/16 19:40:21;;;;;;;4.53;2.75;;;24.90;99.90;;;;;;6196134;23;20457;-93
